createdAt,value
2017-09-20T00:01:43.680Z,29.85
2017-09-20T00:04:12.273Z,31.58
2017-09-20T00:06:40.805Z,29.02
2017-09-20T00:09:08.576Z,30.48
2017-09-20T00:11:36.390Z,27.65
2017-09-20T00:14:04.169Z,27.95
2017-09-20T00:16:32.010Z,25.98
2017-09-20T00:18:59.799Z,29.52
2017-09-20T00:21:27.585Z,32.85
2017-09-20T00:23:55.389Z,29.10
2017-09-20T00:26:23.931Z,31.50
2017-09-20T00:28:51.761Z,31.98
2017-09-20T00:31:19.535Z,29.75
2017-09-20T00:33:47.405Z,30.70
2017-09-20T00:36:15.216Z,30.67
2017-09-20T00:38:43.744Z,31.35
2017-09-20T00:41:11.602Z,31.83
2017-09-20T00:43:39.392Z,29.75
2017-09-20T00:46:07.174Z,29.05
2017-09-20T00:48:35.741Z,29.87
2017-09-20T00:51:03.513Z,28.85
2017-09-20T00:53:31.361Z,30.33
2017-09-20T00:55:59.142Z,32.50
2017-09-20T00:58:27.702Z,31.33
2017-09-20T01:00:55.529Z,31.85
2017-09-20T01:03:23.308Z,33.08
2017-09-20T01:05:51.155Z,30.48
2017-09-20T01:08:18.954Z,29.90
2017-09-20T01:10:46.733Z,29.65
2017-09-20T01:13:15.300Z,31.55
2017-09-20T01:15:43.086Z,33.13
2017-09-20T01:18:11.688Z,29.92
2017-09-20T01:20:51.396Z,29.67
2017-09-20T01:23:35.713Z,31.77
2017-09-20T01:26:03.517Z,30.83
2017-09-20T01:28:32.059Z,29.10
2017-09-20T01:30:59.866Z,29.35
2017-09-20T01:33:28.451Z,30.35
2017-09-20T01:35:56.296Z,30.20
2017-09-20T01:38:24.853Z,30.30
2017-09-20T01:40:52.633Z,32.28
2017-09-20T01:43:21.205Z,29.37
2017-09-20T01:45:48.993Z,33.30
2017-09-20T01:48:17.575Z,34.75
2017-09-20T01:50:46.123Z,36.90
2017-09-20T01:53:13.900Z,39.08
2017-09-20T01:55:42.489Z,32.67
2017-09-20T01:58:11.050Z,32.67
2017-09-20T02:00:38.874Z,33.08
2017-09-20T02:03:06.671Z,33.63
2017-09-20T02:05:34.437Z,34.03
2017-09-20T02:08:02.238Z,35.75
2017-09-20T02:10:30.009Z,32.75
2017-09-20T02:12:57.845Z,32.97
2017-09-20T02:15:26.383Z,33.08
2017-09-20T02:17:54.167Z,35.40
2017-09-20T02:20:21.959Z,35.70
2017-09-20T02:22:50.501Z,31.75
2017-09-20T02:25:18.330Z,31.55
2017-09-20T02:27:46.115Z,29.73
2017-09-20T02:30:13.891Z,35.42
2017-09-20T02:32:41.702Z,33.75
2017-09-20T02:35:09.514Z,35.22
2017-09-20T02:37:37.364Z,32.22
2017-09-20T02:40:05.159Z,31.60
2017-09-20T02:42:33.729Z,32.47
2017-09-20T02:45:01.549Z,30.98
2017-09-20T02:47:29.335Z,28.10
2017-09-20T02:49:57.220Z,28.52
2017-09-20T02:52:24.994Z,30.00
2017-09-20T02:54:53.538Z,27.25
2017-09-20T02:57:21.331Z,28.40
2017-09-20T02:59:49.894Z,27.95
2017-09-20T03:02:17.726Z,27.90
2017-09-20T03:04:45.503Z,28.52
2017-09-20T03:07:13.282Z,27.40
2017-09-20T03:09:41.098Z,26.87
2017-09-20T03:12:08.864Z,25.40
2017-09-20T03:14:36.688Z,27.15
2017-09-20T03:17:04.453Z,29.42
2017-09-20T03:19:33.004Z,28.98
2017-09-20T03:22:00.810Z,31.55
2017-09-20T03:24:28.631Z,29.67
2017-09-20T03:26:56.459Z,27.80
2017-09-20T03:29:24.240Z,31.55
2017-09-20T03:31:52.017Z,32.63
2017-09-20T03:34:19.829Z,29.65
2017-09-20T03:36:47.612Z,29.05
2017-09-20T03:39:15.443Z,26.92
2017-09-20T03:41:43.997Z,28.23
2017-09-20T03:44:11.763Z,28.65
2017-09-20T03:46:39.558Z,32.10
2017-09-20T03:49:07.346Z,29.58
2017-09-20T03:51:35.190Z,29.92
2017-09-20T03:54:02.954Z,30.02
2017-09-20T03:56:30.773Z,29.55
2017-09-20T03:58:58.578Z,29.50
2017-09-20T04:01:26.361Z,30.23
2017-09-20T04:03:54.954Z,29.55
2017-09-20T04:06:22.722Z,30.88
2017-09-20T04:08:50.505Z,29.60
2017-09-20T04:11:18.314Z,28.83
2017-09-20T04:13:46.091Z,27.40
2017-09-20T04:16:13.918Z,28.27
2017-09-20T04:18:42.450Z,29.52
2017-09-20T04:21:10.225Z,28.60
2017-09-20T04:23:38.018Z,30.08
2017-09-20T04:26:06.576Z,28.17
2017-09-20T04:28:34.395Z,25.55
2017-09-20T04:31:02.159Z,26.42
2017-09-20T04:33:29.941Z,26.42
2017-09-20T04:35:57.739Z,25.85
2017-09-20T04:38:26.273Z,26.52
2017-09-20T04:40:54.107Z,27.67
2017-09-20T04:43:21.898Z,26.10
2017-09-20T04:45:49.669Z,24.95
2017-09-20T04:48:17.486Z,26.85
2017-09-20T04:50:45.250Z,27.45
2017-09-20T04:53:13.075Z,28.73
2017-09-20T04:55:40.846Z,25.75
2017-09-20T04:58:09.391Z,25.60
2017-09-20T05:00:37.211Z,25.92
2017-09-20T05:03:04.982Z,28.23
2017-09-20T05:05:32.810Z,29.00
2017-09-20T05:08:00.602Z,24.33
2017-09-20T05:10:28.385Z,24.42
2017-09-20T05:12:56.954Z,25.50
2017-09-20T05:15:24.736Z,25.23
2017-09-20T05:17:52.576Z,23.65
2017-09-20T05:20:20.348Z,26.08
2017-09-20T05:22:48.888Z,24.77
2017-09-20T05:25:16.695Z,23.90
2017-09-20T05:27:44.461Z,24.15
2017-09-20T05:30:12.335Z,26.77
2017-09-20T05:32:40.124Z,23.65
2017-09-20T05:35:07.908Z,25.48
2017-09-20T05:37:36.496Z,28.62
2017-09-20T05:40:05.045Z,25.05
2017-09-20T05:42:33.675Z,23.42
2017-09-20T05:45:01.443Z,24.85
2017-09-20T05:47:29.225Z,26.92
2017-09-20T05:49:57.028Z,24.75
2017-09-20T05:52:25.593Z,27.08
2017-09-20T05:54:53.455Z,26.52
2017-09-20T05:57:21.238Z,26.92
2017-09-20T05:59:49.019Z,25.45
2017-09-20T06:02:16.868Z,23.70
2017-09-20T06:04:45.410Z,24.92
2017-09-20T06:07:13.247Z,24.35
2017-09-20T06:09:41.037Z,22.33
2017-09-20T06:12:08.807Z,20.10
2017-09-20T06:14:36.613Z,21.02
2017-09-20T06:17:05.148Z,18.08
2017-09-20T06:19:32.968Z,16.85
2017-09-20T06:22:00.743Z,18.55
2017-09-20T06:24:28.515Z,19.20
2017-09-20T06:26:56.324Z,17.60
2017-09-20T06:29:24.868Z,17.25
2017-09-20T06:31:52.699Z,18.48
2017-09-20T06:34:20.479Z,16.83
2017-09-20T06:36:48.250Z,16.95
2017-09-20T06:39:16.075Z,15.73
2017-09-20T06:41:43.856Z,16.65
2017-09-20T06:44:12.455Z,16.77
2017-09-20T06:46:40.228Z,16.70
2017-09-20T06:49:08.009Z,17.27
2017-09-20T06:51:35.823Z,18.15
2017-09-20T06:54:03.612Z,16.55
2017-09-20T06:56:31.466Z,18.15
2017-09-20T06:58:59.239Z,16.05
2017-09-20T07:01:27.015Z,15.98
2017-09-20T07:03:54.833Z,14.87
2017-09-20T07:06:22.599Z,15.55
2017-09-20T07:08:50.437Z,17.02
2017-09-20T07:11:18.216Z,16.37
2017-09-20T07:27:06.268Z,15.73
2017-09-20T07:29:34.852Z,15.40
2017-09-20T07:32:02.648Z,15.35
2017-09-20T07:34:30.462Z,16.17
2017-09-20T07:36:58.295Z,14.65
2017-09-20T07:39:26.148Z,16.33
2017-09-20T07:41:53.926Z,16.85
2017-09-20T07:44:21.720Z,15.30
2017-09-20T07:46:49.537Z,16.10
2017-09-20T07:49:17.328Z,16.02
2017-09-20T07:51:45.917Z,15.15
2017-09-20T07:54:13.701Z,12.20
2017-09-20T07:56:41.469Z,13.85
2017-09-20T07:59:09.288Z,13.57
2017-09-20T08:01:37.840Z,14.52
2017-09-20T08:04:05.689Z,16.30
2017-09-20T08:06:33.465Z,13.70
2017-09-20T08:09:01.235Z,13.18
2017-09-20T08:11:29.047Z,13.80
2017-09-20T08:13:56.832Z,12.43
2017-09-20T08:16:24.670Z,14.27
2017-09-20T08:18:52.438Z,12.68
2017-09-20T08:21:20.227Z,13.40
2017-09-20T08:23:48.035Z,11.68
2017-09-20T08:26:15.811Z,13.48
2017-09-20T08:28:43.660Z,11.75
2017-09-20T08:31:12.199Z,14.57
2017-09-20T08:33:39.977Z,12.02
2017-09-20T08:36:07.785Z,13.77
2017-09-20T08:38:35.569Z,13.98
2017-09-20T08:41:04.181Z,15.23
2017-09-20T08:43:31.976Z,11.20
2017-09-20T08:46:00.525Z,13.73
2017-09-20T08:48:28.331Z,12.57
2017-09-20T08:50:56.116Z,14.65
2017-09-20T08:53:23.992Z,12.63
2017-09-20T08:55:51.779Z,12.52
2017-09-20T08:58:19.569Z,12.95
2017-09-20T09:00:48.142Z,10.70
2017-09-20T09:03:15.934Z,10.95
2017-09-20T09:05:43.769Z,11.70
2017-09-20T09:08:12.331Z,10.40
2017-09-20T09:10:40.111Z,10.65
2017-09-20T09:13:07.912Z,11.10
2017-09-20T09:15:36.464Z,11.75
2017-09-20T09:18:05.063Z,12.23
2017-09-20T09:20:32.850Z,10.68
2017-09-20T09:23:00.627Z,11.02
2017-09-20T09:25:28.432Z,10.45
2017-09-20T09:27:56.215Z,10.00
2017-09-20T09:30:24.046Z,9.95
2017-09-20T09:32:52.581Z,9.68
2017-09-20T09:35:20.364Z,10.43
2017-09-20T09:37:48.185Z,10.18
2017-09-20T09:40:16.730Z,10.82
2017-09-20T09:42:45.487Z,10.95
2017-09-20T09:45:13.285Z,11.38
2017-09-20T09:47:41.837Z,10.88
2017-09-20T09:50:09.675Z,9.43
2017-09-20T09:52:37.479Z,10.32
2017-09-20T09:55:06.076Z,10.57
2017-09-20T09:57:33.855Z,11.15
2017-09-20T10:00:01.633Z,10.32
2017-09-20T10:02:29.448Z,9.90
2017-09-20T10:04:57.993Z,9.93
2017-09-20T10:07:25.864Z,9.93
2017-09-20T10:09:53.649Z,10.82
2017-09-20T10:12:22.193Z,10.38
2017-09-20T10:14:50.001Z,11.20
2017-09-20T10:17:17.796Z,11.20
2017-09-20T10:19:45.644Z,10.25
2017-09-20T10:22:13.412Z,10.07
2017-09-20T10:24:41.212Z,11.15
2017-09-20T10:27:09.012Z,9.43
2017-09-20T10:29:37.562Z,10.50
2017-09-20T10:32:05.401Z,9.15
2017-09-20T10:34:33.185Z,10.27
2017-09-20T10:37:00.958Z,9.75
2017-09-20T10:39:28.776Z,10.18
2017-09-20T10:41:56.553Z,10.85
2017-09-20T10:44:24.397Z,8.80
2017-09-20T10:46:52.180Z,9.18
2017-09-20T10:49:19.957Z,10.27
2017-09-20T10:51:47.756Z,8.57
2017-09-20T10:54:16.302Z,8.63
2017-09-20T10:56:44.281Z,8.82
2017-09-20T10:59:12.051Z,8.07
2017-09-20T11:01:39.867Z,9.20
2017-09-20T11:04:07.681Z,9.43
2017-09-20T11:06:35.462Z,9.63
2017-09-20T11:09:03.319Z,9.10
2017-09-20T11:11:31.871Z,8.70
2017-09-20T11:13:59.649Z,9.40
2017-09-20T11:16:28.220Z,7.80
2017-09-20T11:18:56.765Z,9.60
2017-09-20T11:21:24.599Z,8.40
2017-09-20T11:23:52.388Z,7.85
2017-09-20T11:26:20.164Z,7.70
2017-09-20T11:28:47.969Z,6.87
2017-09-20T11:31:15.757Z,8.15
2017-09-20T11:33:43.581Z,7.60
2017-09-20T11:36:12.122Z,7.72
2017-09-20T11:38:39.897Z,8.50
2017-09-20T11:41:07.702Z,8.32
2017-09-20T11:43:35.506Z,7.65
2017-09-20T11:46:03.334Z,7.60
2017-09-20T11:48:31.117Z,6.78
2017-09-20T11:50:58.896Z,7.30
2017-09-20T11:53:26.713Z,8.07
2017-09-20T11:55:55.249Z,8.15
2017-09-20T11:58:23.093Z,7.70
2017-09-20T12:00:50.861Z,8.25
2017-09-20T12:03:18.673Z,8.85
2017-09-20T12:05:47.239Z,7.90
2017-09-20T12:08:15.011Z,8.32
2017-09-20T12:10:43.603Z,8.93
2017-09-20T12:13:12.162Z,8.68
2017-09-20T12:15:39.935Z,10.75
2017-09-20T12:18:07.753Z,8.82
2017-09-20T12:20:35.534Z,9.38
2017-09-20T12:23:03.527Z,7.80
2017-09-20T12:25:32.078Z,8.52
2017-09-20T12:27:59.862Z,9.18
2017-09-20T12:30:27.677Z,7.78
2017-09-20T12:32:55.451Z,8.90
2017-09-20T12:35:23.285Z,7.95
2017-09-20T12:37:51.064Z,8.80
2017-09-20T12:40:18.822Z,8.13
2017-09-20T12:42:46.633Z,9.80
2017-09-20T12:45:14.405Z,8.32
2017-09-20T12:47:43.039Z,10.43
2017-09-20T12:50:10.830Z,9.40
2017-09-20T12:52:38.615Z,9.50
2017-09-20T12:55:06.456Z,9.90
2017-09-20T12:57:34.230Z,9.10
2017-09-20T13:00:02.843Z,9.18
2017-09-20T13:02:30.626Z,11.40
2017-09-20T13:04:58.408Z,8.52
2017-09-20T13:07:26.215Z,7.80
2017-09-20T13:09:53.992Z,6.50
2017-09-20T13:12:21.828Z,7.75
2017-09-20T13:14:49.600Z,6.32
2017-09-20T13:17:17.396Z,7.68
2017-09-20T13:19:45.184Z,6.25
2017-09-20T13:22:12.944Z,6.12
2017-09-20T13:24:40.783Z,9.48
2017-09-20T13:27:08.558Z,6.62
2017-09-20T13:29:36.334Z,7.45
2017-09-20T13:32:04.132Z,7.80
2017-09-20T13:34:32.672Z,7.57
2017-09-20T13:37:00.507Z,8.00
2017-09-20T13:39:28.281Z,8.57
2017-09-20T13:41:56.066Z,8.52
2017-09-20T13:44:23.877Z,7.85
2017-09-20T13:46:51.649Z,7.82
2017-09-20T13:49:19.480Z,8.55
2017-09-20T13:51:48.013Z,8.40
2017-09-20T13:54:15.801Z,5.82
2017-09-20T13:56:43.654Z,5.97
2017-09-20T13:59:11.423Z,7.03
2017-09-20T14:01:39.240Z,6.57
2017-09-20T14:04:07.016Z,8.65
2017-09-20T14:06:35.616Z,7.10
2017-09-20T14:09:03.443Z,7.20
2017-09-20T14:11:31.207Z,7.62
2017-09-20T14:13:59.047Z,6.60
2017-09-20T14:16:27.582Z,5.35
2017-09-20T14:18:55.357Z,5.57
2017-09-20T14:21:23.161Z,14.32
2017-09-20T14:23:50.940Z,6.43
2017-09-20T14:26:18.792Z,7.30
2017-09-20T14:28:46.605Z,7.28
2017-09-20T14:31:14.378Z,7.45
2017-09-20T14:33:42.182Z,7.85
2017-09-20T14:36:09.968Z,8.10
2017-09-20T14:38:37.805Z,6.65
2017-09-20T14:41:05.578Z,7.40
2017-09-20T14:43:33.354Z,8.10
2017-09-20T14:46:01.159Z,8.00
2017-09-20T14:48:28.971Z,7.12
2017-09-20T14:50:56.802Z,8.13
2017-09-20T14:53:25.343Z,6.85
2017-09-20T14:55:53.118Z,5.80
2017-09-20T14:58:20.921Z,6.50
2017-09-20T15:00:48.700Z,5.85
2017-09-20T15:03:16.545Z,7.25
2017-09-20T15:05:45.086Z,5.60
2017-09-20T15:08:12.857Z,6.20
2017-09-20T15:10:40.661Z,5.57
2017-09-20T15:13:08.436Z,5.22
2017-09-20T15:15:36.267Z,5.00
2017-09-20T15:18:04.816Z,5.82
2017-09-20T15:20:32.589Z,6.00
2017-09-20T15:23:01.181Z,5.70
2017-09-20T15:25:29.724Z,6.05
2017-09-20T15:27:57.551Z,5.50
2017-09-20T15:30:25.425Z,6.03
2017-09-20T15:32:53.232Z,6.55
2017-09-20T15:35:21.038Z,5.87
2017-09-20T15:37:48.865Z,7.93
2017-09-20T15:40:16.707Z,7.37
2017-09-20T15:42:44.481Z,6.70
2017-09-20T15:45:12.292Z,6.55
2017-09-20T15:47:40.094Z,6.30
2017-09-20T15:50:07.860Z,5.50
2017-09-20T15:52:35.686Z,5.80
2017-09-20T15:55:03.477Z,5.12
2017-09-20T15:57:31.253Z,5.93
2017-09-20T15:59:59.068Z,4.90
2017-09-20T16:02:26.839Z,6.45
2017-09-20T16:04:54.680Z,8.43
2017-09-20T16:07:22.449Z,7.20
2017-09-20T16:09:50.225Z,6.85
2017-09-20T16:12:18.054Z,8.05
2017-09-20T16:14:46.592Z,6.60
2017-09-20T16:17:14.430Z,8.15
2017-09-20T16:19:42.217Z,8.60
2017-09-20T16:22:10.000Z,7.85
2017-09-20T16:24:37.795Z,7.87
2017-09-20T16:27:05.571Z,7.43
2017-09-20T16:29:33.400Z,9.40
2017-09-20T16:32:01.951Z,6.95
2017-09-20T16:34:29.840Z,10.35
2017-09-20T16:36:58.435Z,9.98
2017-09-20T16:39:26.989Z,8.48
2017-09-20T16:41:54.875Z,9.95
2017-09-20T16:44:23.443Z,9.95
2017-09-20T16:46:52.048Z,11.12
2017-09-20T16:49:20.707Z,11.55
2017-09-20T16:51:49.313Z,13.35
2017-09-20T16:54:17.155Z,13.75
2017-09-20T16:56:44.931Z,13.85
2017-09-20T16:59:13.600Z,14.20
2017-09-20T17:01:41.419Z,11.50
2017-09-20T17:04:09.208Z,11.82
2017-09-20T17:06:37.040Z,12.32
2017-09-20T17:09:04.857Z,11.02
2017-09-20T17:11:33.431Z,12.82
2017-09-20T17:14:01.248Z,13.90
2017-09-20T17:16:29.031Z,12.30
2017-09-20T17:18:56.876Z,12.82
2017-09-20T17:21:24.668Z,14.35
2017-09-20T17:23:52.444Z,12.30
2017-09-20T17:26:21.029Z,12.05
2017-09-20T17:28:49.574Z,14.43
2017-09-20T17:31:17.513Z,14.52
2017-09-20T17:33:45.289Z,14.90
2017-09-20T17:36:13.062Z,14.87
2017-09-20T17:38:40.883Z,15.70
2017-09-20T17:41:08.665Z,14.68
2017-09-20T17:43:36.505Z,16.33
2017-09-20T17:46:05.047Z,14.85
2017-09-20T17:48:32.833Z,14.65
2017-09-20T17:51:01.414Z,13.60
2017-09-20T17:53:29.955Z,13.70
2017-09-20T17:55:57.791Z,13.55
2017-09-20T17:58:25.580Z,15.63
2017-09-20T18:00:53.360Z,16.23
2017-09-20T18:03:21.173Z,16.87
2017-09-20T18:05:48.948Z,15.30
2017-09-20T18:08:16.776Z,16.95
2017-09-20T18:10:45.327Z,15.88
2017-09-20T18:13:13.101Z,16.33
2017-09-20T18:15:40.926Z,17.98
2017-09-20T18:18:08.711Z,17.35
2017-09-20T18:20:36.556Z,18.40
2017-09-20T18:23:04.341Z,17.95
2017-09-20T18:25:32.116Z,17.33
2017-09-20T18:27:59.930Z,17.73
2017-09-20T18:30:28.480Z,17.42
2017-09-20T18:32:57.082Z,15.65
2017-09-20T18:35:24.853Z,17.00
2017-09-20T18:37:52.784Z,16.52
2017-09-20T18:40:20.693Z,14.63
2017-09-20T18:42:48.471Z,15.85
2017-09-20T18:45:16.304Z,15.70
2017-09-20T18:47:44.085Z,16.67
2017-09-20T18:50:11.878Z,16.95
2017-09-20T18:52:39.685Z,17.35
2017-09-20T18:55:07.477Z,16.70
2017-09-20T18:57:35.326Z,17.80
2017-09-20T19:00:03.123Z,16.70
2017-09-20T19:02:30.904Z,18.62
2017-09-20T19:04:59.473Z,17.02
2017-09-20T19:07:27.281Z,19.45
2017-09-20T19:09:55.118Z,18.02
2017-09-20T19:12:23.682Z,16.20
2017-09-20T19:14:52.290Z,17.27
2017-09-20T19:17:20.469Z,15.93
2017-09-20T19:19:48.322Z,14.23
2017-09-20T19:22:16.162Z,14.55
2017-09-20T19:24:45.072Z,14.30
2017-09-20T19:27:12.923Z,14.68
2017-09-20T19:29:41.551Z,14.15
2017-09-20T19:32:09.339Z,13.93
2017-09-20T19:34:37.192Z,14.52
2017-09-20T19:37:04.993Z,15.13
2017-09-20T19:39:33.579Z,14.13
2017-09-20T19:42:01.416Z,15.55
2017-09-20T19:44:29.256Z,14.50
2017-09-20T19:46:57.108Z,14.50
2017-09-20T19:49:24.888Z,12.43
2017-09-20T19:51:52.673Z,13.60
2017-09-20T19:54:20.486Z,12.68
2017-09-20T19:56:48.270Z,14.52
2017-09-20T19:59:16.126Z,14.48
2017-09-20T20:01:43.924Z,13.88
2017-09-20T20:04:11.691Z,15.32
2017-09-20T20:06:39.531Z,15.40
2017-09-20T20:09:08.076Z,16.02
2017-09-20T20:11:35.903Z,15.02
2017-09-20T20:14:04.449Z,14.80
2017-09-20T20:16:32.245Z,15.13
2017-09-20T20:19:00.814Z,15.05
2017-09-20T20:21:28.587Z,16.77
2017-09-20T20:23:57.195Z,14.60
2017-09-20T20:26:24.980Z,15.32
2017-09-20T20:28:52.760Z,17.20
2017-09-20T20:31:20.563Z,17.00
2017-09-20T20:33:48.363Z,23.58
2017-09-20T20:36:16.199Z,58.30
2017-09-20T20:38:43.968Z,52.60
2017-09-20T20:41:11.736Z,37.83
2017-09-20T20:43:39.534Z,47.65
2017-09-20T20:46:07.303Z,36.17
2017-09-20T20:48:35.153Z,42.42
2017-09-20T20:51:02.929Z,25.37
2017-09-20T20:53:30.707Z,28.45
2017-09-20T20:55:58.512Z,24.85
2017-09-20T20:58:26.292Z,19.80
2017-09-20T21:00:54.313Z,18.87
2017-09-20T21:03:22.866Z,19.15
2017-09-20T21:05:50.643Z,19.45
2017-09-20T21:08:18.444Z,18.55
2017-09-20T21:10:46.220Z,25.65
2017-09-20T21:13:14.080Z,25.62
2017-09-20T21:15:41.872Z,26.62
2017-09-20T21:18:09.656Z,19.50
2017-09-20T21:20:37.486Z,26.37
2017-09-20T21:23:05.260Z,22.67
2017-09-20T21:25:33.101Z,24.55
2017-09-20T21:28:00.865Z,31.40
2017-09-20T21:30:28.655Z,94.70
2017-09-20T21:32:56.466Z,33.67
2017-09-20T21:35:24.244Z,40.42
2017-09-20T21:37:52.082Z,36.33
2017-09-20T21:40:19.858Z,30.52
2017-09-20T21:42:47.637Z,30.48
2017-09-20T21:45:15.444Z,35.40
2017-09-20T21:47:43.987Z,27.67
2017-09-20T21:50:11.841Z,34.63
2017-09-20T21:52:39.617Z,34.22
2017-09-20T21:55:07.384Z,36.85
2017-09-20T21:57:35.182Z,33.33
2017-09-20T22:00:03.730Z,27.23
2017-09-20T22:02:31.582Z,29.63
2017-09-20T22:04:59.361Z,31.25
2017-09-20T22:07:27.129Z,30.98
2017-09-20T22:09:54.942Z,33.08
2017-09-20T22:12:22.716Z,34.63
2017-09-20T22:14:50.055Z,33.00
2017-09-20T22:17:29.637Z,37.92
2017-09-20T22:20:09.205Z,32.60
2017-09-20T22:22:49.453Z,31.77
2017-09-20T22:25:29.776Z,35.88
2017-09-20T22:27:57.552Z,38.38
2017-09-20T22:30:25.337Z,34.25
2017-09-20T22:32:53.916Z,30.73
2017-09-20T22:35:22.474Z,30.00
2017-09-20T22:37:50.304Z,32.67
2017-09-20T22:40:18.086Z,33.17
2017-09-20T22:42:45.860Z,30.23
2017-09-20T22:45:13.678Z,25.05
2017-09-20T22:47:41.460Z,25.00
2017-09-20T22:50:09.300Z,24.92
2017-09-20T22:52:37.073Z,27.55
2017-09-20T22:55:04.867Z,30.60
2017-09-20T22:57:32.660Z,22.02
2017-09-20T23:00:01.202Z,21.85
2017-09-20T23:02:29.053Z,28.95
2017-09-20T23:04:56.832Z,23.85
2017-09-20T23:07:24.608Z,26.90
2017-09-20T23:09:52.414Z,27.17
2017-09-20T23:12:20.187Z,39.70
2017-09-20T23:14:48.025Z,30.62
2017-09-20T23:17:15.803Z,30.33
2017-09-20T23:19:44.345Z,37.30
2017-09-20T23:22:12.926Z,48.78
2017-09-20T23:24:40.733Z,35.40
2017-09-20T23:27:08.564Z,49.10
2017-09-20T23:29:37.120Z,41.10
2017-09-20T23:32:04.896Z,34.25
2017-09-20T23:34:33.468Z,34.47
2017-09-20T23:37:01.239Z,35.97
2017-09-20T23:39:29.838Z,35.05
2017-09-20T23:41:57.607Z,38.85
2017-09-20T23:44:25.379Z,35.28
2017-09-20T23:46:53.186Z,37.60
2017-09-20T23:49:20.986Z,38.78
2017-09-20T23:51:49.576Z,36.15
2017-09-20T23:54:17.361Z,37.20
2017-09-20T23:56:45.132Z,37.83
2017-09-20T23:59:12.938Z,32.63
